sensor_id;sensor_type;location;lat;lon;timestamp;P1;durP1;ratioP1;P2;durP2;ratioP2
52456;SDS011;38369;52.840;7.082;2022-09-21T00:00:25;5.97;;;1.70;;
52456;SDS011;38369;52.840;7.082;2022-09-21T00:02:54;2.25;;;2.00;;
52456;SDS011;38369;52.840;7.082;2022-09-21T00:05:20;9.15;;;1.48;;
52456;SDS011;38369;52.840;7.082;2022-09-21T00:07:46;25.92;;;3.03;;
52456;SDS011;38369;52.840;7.082;2022-09-21T00:10:13;10.95;;;2.25;;
52456;SDS011;38369;52.840;7.082;2022-09-21T00:12:39;9.35;;;2.45;;
52456;SDS011;38369;52.840;7.082;2022-09-21T00:15:06;6.90;;;2.92;;
52456;SDS011;38369;52.840;7.082;2022-09-21T00:17:32;3.33;;;2.50;;
52456;SDS011;38369;52.840;7.082;2022-09-21T00:19:58;3.63;;;2.47;;
52456;SDS011;38369;52.840;7.082;2022-09-21T00:22:26;7.65;;;3.15;;
52456;SDS011;38369;52.840;7.082;2022-09-21T00:24:53;3.55;;;2.22;;
52456;SDS011;38369;52.840;7.082;2022-09-21T00:27:20;2.90;;;1.98;;
52456;SDS011;38369;52.840;7.082;2022-09-21T00:29:46;5.35;;;1.98;;
52456;SDS011;38369;52.840;7.082;2022-09-21T00:32:13;4.18;;;1.65;;
52456;SDS011;38369;52.840;7.082;2022-09-21T00:34:39;1.23;;;1.00;;
52456;SDS011;38369;52.840;7.082;2022-09-21T00:37:06;5.38;;;1.10;;
52456;SDS011;38369;52.840;7.082;2022-09-21T00:39:33;3.95;;;1.30;;
52456;SDS011;38369;52.840;7.082;2022-09-21T00:42:00;2.30;;;1.20;;
52456;SDS011;38369;52.840;7.082;2022-09-21T00:44:30;2.47;;;1.10;;
52456;SDS011;38369;52.840;7.082;2022-09-21T00:46:59;2.42;;;1.45;;
52456;SDS011;38369;52.840;7.082;2022-09-21T00:49:26;1.20;;;1.10;;
52456;SDS011;38369;52.840;7.082;2022-09-21T00:51:52;2.45;;;1.20;;
52456;SDS011;38369;52.840;7.082;2022-09-21T00:54:22;1.60;;;1.30;;
52456;SDS011;38369;52.840;7.082;2022-09-21T00:56:51;2.97;;;1.98;;
52456;SDS011;38369;52.840;7.082;2022-09-21T00:59:17;4.70;;;2.63;;
52456;SDS011;38369;52.840;7.082;2022-09-21T01:01:44;2.40;;;1.55;;
52456;SDS011;38369;52.840;7.082;2022-09-21T01:04:11;1.15;;;0.90;;
52456;SDS011;38369;52.840;7.082;2022-09-21T01:06:37;1.23;;;0.90;;
52456;SDS011;38369;52.840;7.082;2022-09-21T01:09:04;3.90;;;1.70;;
52456;SDS011;38369;52.840;7.082;2022-09-21T01:11:42;2.80;;;1.60;;
52456;SDS011;38369;52.840;7.082;2022-09-21T01:14:15;4.20;;;1.70;;
52456;SDS011;38369;52.840;7.082;2022-09-21T01:27:59;1.83;;;1.40;;
52456;SDS011;38369;52.840;7.082;2022-09-21T01:30:29;3.00;;;1.63;;
52456;SDS011;38369;52.840;7.082;2022-09-21T01:35:42;3.05;;;1.60;;
52456;SDS011;38369;52.840;7.082;2022-09-21T01:38:32;2.85;;;1.80;;
52456;SDS011;38369;52.840;7.082;2022-09-21T01:40:58;3.53;;;1.33;;
52456;SDS011;38369;52.840;7.082;2022-09-21T01:43:27;1.58;;;1.27;;
52456;SDS011;38369;52.840;7.082;2022-09-21T01:45:55;2.17;;;1.55;;
52456;SDS011;38369;52.840;7.082;2022-09-21T01:48:22;2.88;;;1.50;;
52456;SDS011;38369;52.840;7.082;2022-09-21T01:50:50;3.25;;;1.50;;
52456;SDS011;38369;52.840;7.082;2022-09-21T01:53:20;1.48;;;1.30;;
52456;SDS011;38369;52.840;7.082;2022-09-21T01:55:49;1.42;;;1.23;;
52456;SDS011;38369;52.840;7.082;2022-09-21T02:00:46;1.77;;;1.40;;
52456;SDS011;38369;52.840;7.082;2022-09-21T02:06:08;1.80;;;1.25;;
52456;SDS011;38369;52.840;7.082;2022-09-21T02:08:36;1.80;;;1.58;;
52456;SDS011;38369;52.840;7.082;2022-09-21T02:11:03;1.50;;;1.40;;
52456;SDS011;38369;52.840;7.082;2022-09-21T02:13:34;12.77;;;2.33;;
52456;SDS011;38369;52.840;7.082;2022-09-21T02:16:24;1.80;;;1.33;;
52456;SDS011;38369;52.840;7.082;2022-09-21T02:19:08;2.45;;;1.92;;
52456;SDS011;38369;52.840;7.082;2022-09-21T02:26:48;2.00;;;1.77;;
52456;SDS011;38369;52.840;7.082;2022-09-21T02:29:19;2.03;;;1.70;;
52456;SDS011;38369;52.840;7.082;2022-09-21T02:31:51;3.00;;;1.75;;
52456;SDS011;38369;52.840;7.082;2022-09-21T02:42:16;8.00;;;1.77;;
52456;SDS011;38369;52.840;7.082;2022-09-21T02:45:27;2.75;;;1.17;;
52456;SDS011;38369;52.840;7.082;2022-09-21T02:47:35;2.00;;;1.50;;
52456;SDS011;38369;52.840;7.082;2022-09-21T02:50:08;2.45;;;1.60;;
52456;SDS011;38369;52.840;7.082;2022-09-21T02:52:36;1.88;;;1.50;;
52456;SDS011;38369;52.840;7.082;2022-09-21T02:55:04;2.38;;;1.80;;
52456;SDS011;38369;52.840;7.082;2022-09-21T02:57:31;2.33;;;1.65;;
52456;SDS011;38369;52.840;7.082;2022-09-21T02:59:57;2.40;;;1.67;;
52456;SDS011;38369;52.840;7.082;2022-09-21T03:02:23;2.03;;;1.58;;
52456;SDS011;38369;52.840;7.082;2022-09-21T03:04:59;2.03;;;1.50;;
52456;SDS011;38369;52.840;7.082;2022-09-21T03:07:26;2.10;;;1.75;;
52456;SDS011;38369;52.840;7.082;2022-09-21T03:09:52;1.70;;;1.42;;
52456;SDS011;38369;52.840;7.082;2022-09-21T03:12:18;2.50;;;1.90;;
52456;SDS011;38369;52.840;7.082;2022-09-21T03:14:45;2.28;;;2.00;;
52456;SDS011;38369;52.840;7.082;2022-09-21T03:17:11;2.30;;;1.83;;
52456;SDS011;38369;52.840;7.082;2022-09-21T03:19:37;2.03;;;1.63;;
52456;SDS011;38369;52.840;7.082;2022-09-21T03:22:03;1.80;;;1.50;;
52456;SDS011;38369;52.840;7.082;2022-09-21T03:24:35;3.47;;;1.90;;
52456;SDS011;38369;52.840;7.082;2022-09-21T03:27:10;2.75;;;1.92;;
52456;SDS011;38369;52.840;7.082;2022-09-21T03:29:36;3.08;;;2.10;;
52456;SDS011;38369;52.840;7.082;2022-09-21T03:32:02;3.70;;;2.40;;
52456;SDS011;38369;52.840;7.082;2022-09-21T03:34:29;5.60;;;2.72;;
52456;SDS011;38369;52.840;7.082;2022-09-21T03:36:58;4.28;;;2.33;;
52456;SDS011;38369;52.840;7.082;2022-09-21T03:39:24;4.60;;;2.30;;
52456;SDS011;38369;52.840;7.082;2022-09-21T03:41:50;3.63;;;2.50;;
52456;SDS011;38369;52.840;7.082;2022-09-21T03:44:19;9.57;;;2.75;;
52456;SDS011;38369;52.840;7.082;2022-09-21T03:46:46;6.10;;;2.70;;
52456;SDS011;38369;52.840;7.082;2022-09-21T03:49:12;3.35;;;2.08;;
52456;SDS011;38369;52.840;7.082;2022-09-21T03:51:38;8.90;;;2.60;;
52456;SDS011;38369;52.840;7.082;2022-09-21T03:54:04;4.10;;;2.35;;
52456;SDS011;38369;52.840;7.082;2022-09-21T03:56:30;7.18;;;2.58;;
52456;SDS011;38369;52.840;7.082;2022-09-21T03:58:56;2.67;;;2.40;;
52456;SDS011;38369;52.840;7.082;2022-09-21T04:01:22;3.28;;;2.20;;
52456;SDS011;38369;52.840;7.082;2022-09-21T04:03:48;8.82;;;2.50;;
52456;SDS011;38369;52.840;7.082;2022-09-21T04:06:14;6.30;;;2.17;;
52456;SDS011;38369;52.840;7.082;2022-09-21T04:08:41;6.32;;;2.60;;
52456;SDS011;38369;52.840;7.082;2022-09-21T04:11:14;21.70;;;2.92;;
52456;SDS011;38369;52.840;7.082;2022-09-21T04:13:40;20.30;;;2.42;;
52456;SDS011;38369;52.840;7.082;2022-09-21T04:16:07;15.80;;;3.10;;
52456;SDS011;38369;52.840;7.082;2022-09-21T04:18:36;9.57;;;2.47;;
52456;SDS011;38369;52.840;7.082;2022-09-21T04:21:03;8.27;;;2.35;;
52456;SDS011;38369;52.840;7.082;2022-09-21T04:23:30;10.27;;;2.63;;
52456;SDS011;38369;52.840;7.082;2022-09-21T04:25:56;16.45;;;2.65;;
52456;SDS011;38369;52.840;7.082;2022-09-21T04:28:22;3.85;;;2.47;;
52456;SDS011;38369;52.840;7.082;2022-09-21T04:30:51;5.85;;;2.65;;
52456;SDS011;38369;52.840;7.082;2022-09-21T04:33:18;2.90;;;2.10;;
52456;SDS011;38369;52.840;7.082;2022-09-21T04:35:44;4.13;;;2.72;;
52456;SDS011;38369;52.840;7.082;2022-09-21T04:38:10;3.40;;;2.80;;
52456;SDS011;38369;52.840;7.082;2022-09-21T04:40:37;4.30;;;2.88;;
52456;SDS011;38369;52.840;7.082;2022-09-21T04:43:03;2.75;;;2.38;;
52456;SDS011;38369;52.840;7.082;2022-09-21T04:45:30;4.28;;;2.65;;
52456;SDS011;38369;52.840;7.082;2022-09-21T04:47:56;4.78;;;2.80;;
52456;SDS011;38369;52.840;7.082;2022-09-21T04:50:22;5.45;;;2.90;;
52456;SDS011;38369;52.840;7.082;2022-09-21T04:52:48;3.70;;;2.63;;
52456;SDS011;38369;52.840;7.082;2022-09-21T04:55:14;2.65;;;1.95;;
52456;SDS011;38369;52.840;7.082;2022-09-21T04:57:41;2.83;;;1.92;;
52456;SDS011;38369;52.840;7.082;2022-09-21T05:00:08;14.98;;;2.50;;
52456;SDS011;38369;52.840;7.082;2022-09-21T05:02:34;7.35;;;2.30;;
52456;SDS011;38369;52.840;7.082;2022-09-21T05:05:01;16.27;;;2.60;;
52456;SDS011;38369;52.840;7.082;2022-09-21T05:07:27;3.17;;;2.10;;
52456;SDS011;38369;52.840;7.082;2022-09-21T05:09:53;6.07;;;2.00;;
52456;SDS011;38369;52.840;7.082;2022-09-21T05:12:28;8.90;;;2.40;;
52456;SDS011;38369;52.840;7.082;2022-09-21T05:14:54;8.55;;;2.47;;
52456;SDS011;38369;52.840;7.082;2022-09-21T05:17:20;7.35;;;2.67;;
52456;SDS011;38369;52.840;7.082;2022-09-21T05:19:47;5.90;;;2.97;;
52456;SDS011;38369;52.840;7.082;2022-09-21T05:22:13;5.10;;;2.60;;
52456;SDS011;38369;52.840;7.082;2022-09-21T05:24:39;3.78;;;2.72;;
52456;SDS011;38369;52.840;7.082;2022-09-21T05:27:05;8.93;;;3.38;;
52456;SDS011;38369;52.840;7.082;2022-09-21T05:29:32;14.48;;;3.10;;
52456;SDS011;38369;52.840;7.082;2022-09-21T05:32:02;9.02;;;3.22;;
52456;SDS011;38369;52.840;7.082;2022-09-21T05:40:00;9.68;;;3.28;;
52456;SDS011;38369;52.840;7.082;2022-09-21T05:42:26;13.68;;;3.42;;
52456;SDS011;38369;52.840;7.082;2022-09-21T05:44:53;13.10;;;3.67;;
52456;SDS011;38369;52.840;7.082;2022-09-21T05:49:50;10.38;;;3.17;;
52456;SDS011;38369;52.840;7.082;2022-09-21T05:55:02;4.55;;;3.17;;
52456;SDS011;38369;52.840;7.082;2022-09-21T05:57:44;3.95;;;3.40;;
52456;SDS011;38369;52.840;7.082;2022-09-21T06:05:06;18.83;;;3.40;;
52456;SDS011;38369;52.840;7.082;2022-09-21T06:07:35;3.70;;;3.00;;
52456;SDS011;38369;52.840;7.082;2022-09-21T06:10:01;6.65;;;3.50;;
52456;SDS011;38369;52.840;7.082;2022-09-21T06:12:27;8.10;;;3.33;;
52456;SDS011;38369;52.840;7.082;2022-09-21T06:14:53;6.28;;;4.13;;
52456;SDS011;38369;52.840;7.082;2022-09-21T06:17:20;4.95;;;3.90;;
52456;SDS011;38369;52.840;7.082;2022-09-21T06:19:46;4.30;;;3.83;;
52456;SDS011;38369;52.840;7.082;2022-09-21T06:22:13;5.18;;;3.97;;
52456;SDS011;38369;52.840;7.082;2022-09-21T06:24:39;10.02;;;4.15;;
52456;SDS011;38369;52.840;7.082;2022-09-21T06:27:05;13.55;;;5.55;;
52456;SDS011;38369;52.840;7.082;2022-09-21T06:29:31;10.77;;;5.90;;
52456;SDS011;38369;52.840;7.082;2022-09-21T06:31:57;10.77;;;5.95;;
52456;SDS011;38369;52.840;7.082;2022-09-21T06:34:23;13.38;;;5.68;;
52456;SDS011;38369;52.840;7.082;2022-09-21T06:36:50;8.57;;;5.05;;
52456;SDS011;38369;52.840;7.082;2022-09-21T06:39:16;8.60;;;5.20;;
52456;SDS011;38369;52.840;7.082;2022-09-21T06:41:42;7.20;;;4.93;;
52456;SDS011;38369;52.840;7.082;2022-09-21T06:44:08;9.65;;;5.30;;
52456;SDS011;38369;52.840;7.082;2022-09-21T06:46:34;6.47;;;4.88;;
52456;SDS011;38369;52.840;7.082;2022-09-21T06:49:00;6.95;;;4.53;;
52456;SDS011;38369;52.840;7.082;2022-09-21T06:51:26;5.80;;;5.05;;
52456;SDS011;38369;52.840;7.082;2022-09-21T06:53:55;5.97;;;4.82;;
52456;SDS011;38369;52.840;7.082;2022-09-21T06:56:22;4.22;;;3.85;;
52456;SDS011;38369;52.840;7.082;2022-09-21T06:58:48;7.25;;;6.50;;
52456;SDS011;38369;52.840;7.082;2022-09-21T07:01:14;6.28;;;4.88;;
52456;SDS011;38369;52.840;7.082;2022-09-21T07:03:41;9.48;;;5.47;;
52456;SDS011;38369;52.840;7.082;2022-09-21T07:06:08;9.20;;;5.72;;
52456;SDS011;38369;52.840;7.082;2022-09-21T07:08:36;7.70;;;5.10;;
52456;SDS011;38369;52.840;7.082;2022-09-21T07:11:03;8.38;;;5.85;;
52456;SDS011;38369;52.840;7.082;2022-09-21T07:13:29;6.72;;;6.13;;
52456;SDS011;38369;52.840;7.082;2022-09-21T07:15:55;7.95;;;6.38;;
52456;SDS011;38369;52.840;7.082;2022-09-21T07:18:21;8.95;;;7.10;;
52456;SDS011;38369;52.840;7.082;2022-09-21T07:20:47;11.57;;;7.85;;
52456;SDS011;38369;52.840;7.082;2022-09-21T07:23:14;9.40;;;7.28;;
52456;SDS011;38369;52.840;7.082;2022-09-21T07:25:41;9.65;;;6.28;;
52456;SDS011;38369;52.840;7.082;2022-09-21T07:28:08;11.88;;;6.82;;
52456;SDS011;38369;52.840;7.082;2022-09-21T07:30:35;11.65;;;8.15;;
52456;SDS011;38369;52.840;7.082;2022-09-21T07:33:01;11.32;;;8.43;;
52456;SDS011;38369;52.840;7.082;2022-09-21T07:35:27;12.55;;;8.65;;
52456;SDS011;38369;52.840;7.082;2022-09-21T07:37:56;9.80;;;8.23;;
52456;SDS011;38369;52.840;7.082;2022-09-21T07:40:22;17.25;;;8.82;;
52456;SDS011;38369;52.840;7.082;2022-09-21T07:42:48;16.23;;;8.05;;
52456;SDS011;38369;52.840;7.082;2022-09-21T07:45:14;13.35;;;7.63;;
52456;SDS011;38369;52.840;7.082;2022-09-21T07:47:40;19.70;;;7.45;;
52456;SDS011;38369;52.840;7.082;2022-09-21T07:50:06;13.88;;;7.10;;
52456;SDS011;38369;52.840;7.082;2022-09-21T07:52:33;10.48;;;6.57;;
52456;SDS011;38369;52.840;7.082;2022-09-21T07:54:59;14.85;;;7.22;;
52456;SDS011;38369;52.840;7.082;2022-09-21T07:57:26;13.77;;;7.20;;
52456;SDS011;38369;52.840;7.082;2022-09-21T08:00:10;15.10;;;7.35;;
52456;SDS011;38369;52.840;7.082;2022-09-21T08:02:37;17.38;;;6.65;;
52456;SDS011;38369;52.840;7.082;2022-09-21T08:05:03;12.20;;;5.80;;
52456;SDS011;38369;52.840;7.082;2022-09-21T08:07:29;11.85;;;7.30;;
52456;SDS011;38369;52.840;7.082;2022-09-21T08:09:55;10.80;;;5.65;;
52456;SDS011;38369;52.840;7.082;2022-09-21T08:12:22;14.27;;;6.85;;
52456;SDS011;38369;52.840;7.082;2022-09-21T08:14:48;13.85;;;5.82;;
52456;SDS011;38369;52.840;7.082;2022-09-21T08:17:14;13.55;;;5.65;;
52456;SDS011;38369;52.840;7.082;2022-09-21T08:19:40;14.45;;;5.45;;
52456;SDS011;38369;52.840;7.082;2022-09-21T08:22:06;12.82;;;5.13;;
52456;SDS011;38369;52.840;7.082;2022-09-21T08:24:33;12.48;;;5.28;;
52456;SDS011;38369;52.840;7.082;2022-09-21T08:26:59;14.43;;;5.15;;
52456;SDS011;38369;52.840;7.082;2022-09-21T08:29:26;12.48;;;4.63;;
52456;SDS011;38369;52.840;7.082;2022-09-21T08:31:53;15.20;;;4.03;;
52456;SDS011;38369;52.840;7.082;2022-09-21T08:34:19;7.85;;;3.92;;
52456;SDS011;38369;52.840;7.082;2022-09-21T08:36:45;10.68;;;3.90;;
52456;SDS011;38369;52.840;7.082;2022-09-21T08:39:11;9.80;;;3.80;;
52456;SDS011;38369;52.840;7.082;2022-09-21T08:41:50;11.18;;;2.53;;
52456;SDS011;38369;52.840;7.082;2022-09-21T08:44:20;15.38;;;2.97;;
52456;SDS011;38369;52.840;7.082;2022-09-21T08:46:57;11.38;;;4.10;;
52456;SDS011;38369;52.840;7.082;2022-09-21T08:49:27;11.55;;;3.78;;
52456;SDS011;38369;52.840;7.082;2022-09-21T08:51:59;12.10;;;4.13;;
52456;SDS011;38369;52.840;7.082;2022-09-21T08:54:42;11.70;;;4.05;;
52456;SDS011;38369;52.840;7.082;2022-09-21T08:57:11;8.68;;;3.25;;
52456;SDS011;38369;52.840;7.082;2022-09-21T08:59:47;6.25;;;3.08;;
52456;SDS011;38369;52.840;7.082;2022-09-21T09:12:41;9.13;;;2.28;;
52456;SDS011;38369;52.840;7.082;2022-09-21T09:17:59;5.38;;;2.38;;
52456;SDS011;38369;52.840;7.082;2022-09-21T09:20:29;9.05;;;2.53;;
52456;SDS011;38369;52.840;7.082;2022-09-21T09:25:26;5.90;;;1.65;;
52456;SDS011;38369;52.840;7.082;2022-09-21T09:27:58;9.40;;;2.05;;
52456;SDS011;38369;52.840;7.082;2022-09-21T09:30:27;7.60;;;2.25;;
52456;SDS011;38369;52.840;7.082;2022-09-21T09:33:15;8.93;;;2.30;;
52456;SDS011;38369;52.840;7.082;2022-09-21T09:35:46;11.48;;;2.38;;
52456;SDS011;38369;52.840;7.082;2022-09-21T09:38:16;6.82;;;1.98;;
52456;SDS011;38369;52.840;7.082;2022-09-21T09:41:01;7.13;;;1.50;;
52456;SDS011;38369;52.840;7.082;2022-09-21T09:48:42;4.78;;;1.30;;
52456;SDS011;38369;52.840;7.082;2022-09-21T09:51:11;7.57;;;1.58;;
52456;SDS011;38369;52.840;7.082;2022-09-21T09:53:38;4.85;;;1.50;;
52456;SDS011;38369;52.840;7.082;2022-09-21T09:56:04;6.50;;;1.67;;
52456;SDS011;38369;52.840;7.082;2022-09-21T10:01:00;7.43;;;1.10;;
52456;SDS011;38369;52.840;7.082;2022-09-21T10:03:27;8.63;;;1.85;;
52456;SDS011;38369;52.840;7.082;2022-09-21T10:05:53;5.15;;;1.48;;
52456;SDS011;38369;52.840;7.082;2022-09-21T10:11:03;4.45;;;1.30;;
52456;SDS011;38369;52.840;7.082;2022-09-21T10:13:42;7.68;;;1.98;;
52456;SDS011;38369;52.840;7.082;2022-09-21T10:16:11;5.20;;;1.65;;
52456;SDS011;38369;52.840;7.082;2022-09-21T10:18:38;7.47;;;1.70;;
52456;SDS011;38369;52.840;7.082;2022-09-21T10:21:14;6.03;;;2.00;;
52456;SDS011;38369;52.840;7.082;2022-09-21T10:23:44;9.88;;;1.75;;
52456;SDS011;38369;52.840;7.082;2022-09-21T10:26:11;9.70;;;1.92;;
52456;SDS011;38369;52.840;7.082;2022-09-21T10:28:53;7.30;;;1.42;;
52456;SDS011;38369;52.840;7.082;2022-09-21T10:31:23;6.78;;;1.73;;
52456;SDS011;38369;52.840;7.082;2022-09-21T10:38:50;7.40;;;1.63;;
52456;SDS011;38369;52.840;7.082;2022-09-21T10:41:16;7.55;;;2.53;;
52456;SDS011;38369;52.840;7.082;2022-09-21T10:43:43;4.78;;;1.10;;
52456;SDS011;38369;52.840;7.082;2022-09-21T10:46:09;3.80;;;1.02;;
52456;SDS011;38369;52.840;7.082;2022-09-21T10:48:35;7.65;;;1.20;;
52456;SDS011;38369;52.840;7.082;2022-09-21T10:51:02;9.98;;;1.65;;
52456;SDS011;38369;52.840;7.082;2022-09-21T10:53:29;6.22;;;1.27;;
52456;SDS011;38369;52.840;7.082;2022-09-21T10:56:03;2.97;;;0.93;;
52456;SDS011;38369;52.840;7.082;2022-09-21T10:58:31;6.43;;;1.05;;
52456;SDS011;38369;52.840;7.082;2022-09-21T11:01:11;13.07;;;2.28;;
52456;SDS011;38369;52.840;7.082;2022-09-21T11:06:07;3.15;;;0.93;;
52456;SDS011;38369;52.840;7.082;2022-09-21T11:08:40;4.07;;;1.02;;
52456;SDS011;38369;52.840;7.082;2022-09-21T11:14:06;8.02;;;1.15;;
52456;SDS011;38369;52.840;7.082;2022-09-21T11:16:36;4.15;;;0.85;;
52456;SDS011;38369;52.840;7.082;2022-09-21T11:24:12;4.32;;;0.98;;
52456;SDS011;38369;52.840;7.082;2022-09-21T11:26:43;6.25;;;1.13;;
52456;SDS011;38369;52.840;7.082;2022-09-21T11:45:02;5.70;;;1.10;;
52456;SDS011;38369;52.840;7.082;2022-09-21T11:47:44;5.53;;;1.70;;
52456;SDS011;38369;52.840;7.082;2022-09-21T11:57:57;4.38;;;1.17;;
52456;SDS011;38369;52.840;7.082;2022-09-21T12:00:25;5.63;;;1.20;;
52456;SDS011;38369;52.840;7.082;2022-09-21T12:06:25;12.70;;;1.42;;
52456;SDS011;38369;52.840;7.082;2022-09-21T12:13:19;9.55;;;1.20;;
52456;SDS011;38369;52.840;7.082;2022-09-21T12:21:35;5.57;;;1.08;;
52456;SDS011;38369;52.840;7.082;2022-09-21T12:24:04;6.20;;;1.10;;
52456;SDS011;38369;52.840;7.082;2022-09-21T12:26:47;5.63;;;1.00;;
52456;SDS011;38369;52.840;7.082;2022-09-21T12:31:46;6.32;;;1.85;;
52456;SDS011;38369;52.840;7.082;2022-09-21T12:34:20;4.20;;;0.88;;
52456;SDS011;38369;52.840;7.082;2022-09-21T12:36:54;6.68;;;0.93;;
52456;SDS011;38369;52.840;7.082;2022-09-21T12:39:45;5.43;;;1.20;;
52456;SDS011;38369;52.840;7.082;2022-09-21T12:42:29;5.10;;;0.90;;
52456;SDS011;38369;52.840;7.082;2022-09-21T12:44:58;5.20;;;1.05;;
52456;SDS011;38369;52.840;7.082;2022-09-21T12:50:01;4.43;;;0.70;;
52456;SDS011;38369;52.840;7.082;2022-09-21T12:52:28;4.30;;;1.00;;
52456;SDS011;38369;52.840;7.082;2022-09-21T13:00:12;5.55;;;0.80;;
52456;SDS011;38369;52.840;7.082;2022-09-21T13:02:41;7.55;;;0.98;;
52456;SDS011;38369;52.840;7.082;2022-09-21T13:10:54;4.78;;;1.20;;
52456;SDS011;38369;52.840;7.082;2022-09-21T13:15:48;4.88;;;0.93;;
52456;SDS011;38369;52.840;7.082;2022-09-21T13:18:16;6.25;;;1.38;;
52456;SDS011;38369;52.840;7.082;2022-09-21T13:20:45;10.15;;;1.10;;
52456;SDS011;38369;52.840;7.082;2022-09-21T13:23:15;5.07;;;0.98;;
52456;SDS011;38369;52.840;7.082;2022-09-21T13:25:45;3.53;;;0.90;;
52456;SDS011;38369;52.840;7.082;2022-09-21T13:38:25;2.60;;;0.80;;
52456;SDS011;38369;52.840;7.082;2022-09-21T13:41:03;8.23;;;1.50;;
52456;SDS011;38369;52.840;7.082;2022-09-21T13:43:46;3.95;;;0.85;;
52456;SDS011;38369;52.840;7.082;2022-09-21T13:48:57;4.82;;;1.00;;
52456;SDS011;38369;52.840;7.082;2022-09-21T13:51:24;2.30;;;0.80;;
52456;SDS011;38369;52.840;7.082;2022-09-21T13:53:53;7.13;;;1.00;;
52456;SDS011;38369;52.840;7.082;2022-09-21T13:56:23;4.35;;;1.10;;
52456;SDS011;38369;52.840;7.082;2022-09-21T13:58:50;3.00;;;0.80;;
52456;SDS011;38369;52.840;7.082;2022-09-21T14:01:21;2.88;;;0.85;;
52456;SDS011;38369;52.840;7.082;2022-09-21T14:08:47;3.97;;;0.98;;
52456;SDS011;38369;52.840;7.082;2022-09-21T14:11:15;5.88;;;1.23;;
52456;SDS011;38369;52.840;7.082;2022-09-21T14:13:45;6.00;;;1.00;;
52456;SDS011;38369;52.840;7.082;2022-09-21T14:22:30;4.07;;;0.75;;
52456;SDS011;38369;52.840;7.082;2022-09-21T14:24:36;5.78;;;0.82;;
52456;SDS011;38369;52.840;7.082;2022-09-21T14:27:11;5.00;;;1.10;;
52456;SDS011;38369;52.840;7.082;2022-09-21T14:29:40;5.43;;;0.95;;
52456;SDS011;38369;52.840;7.082;2022-09-21T14:32:52;3.58;;;0.90;;
52456;SDS011;38369;52.840;7.082;2022-09-21T14:35:05;5.90;;;1.30;;
52456;SDS011;38369;52.840;7.082;2022-09-21T14:37:39;4.15;;;1.08;;
52456;SDS011;38369;52.840;7.082;2022-09-21T14:40:50;2.72;;;0.73;;
52456;SDS011;38369;52.840;7.082;2022-09-21T14:42:57;3.72;;;1.08;;
52456;SDS011;38369;52.840;7.082;2022-09-21T14:48:34;3.47;;;1.17;;
52456;SDS011;38369;52.840;7.082;2022-09-21T14:53:56;4.75;;;1.08;;
52456;SDS011;38369;52.840;7.082;2022-09-21T15:07:18;4.47;;;0.82;;
52456;SDS011;38369;52.840;7.082;2022-09-21T15:13:25;4.55;;;0.80;;
52456;SDS011;38369;52.840;7.082;2022-09-21T15:18:25;3.08;;;0.98;;
52456;SDS011;38369;52.840;7.082;2022-09-21T15:20:55;4.35;;;1.27;;
52456;SDS011;38369;52.840;7.082;2022-09-21T15:23:30;3.47;;;1.20;;
52456;SDS011;38369;52.840;7.082;2022-09-21T15:25:58;3.67;;;0.90;;
52456;SDS011;38369;52.840;7.082;2022-09-21T15:28:28;4.68;;;1.55;;
52456;SDS011;38369;52.840;7.082;2022-09-21T15:30:59;4.03;;;0.95;;
52456;SDS011;38369;52.840;7.082;2022-09-21T15:33:25;3.05;;;0.60;;
52456;SDS011;38369;52.840;7.082;2022-09-21T15:35:51;2.80;;;0.85;;
52456;SDS011;38369;52.840;7.082;2022-09-21T15:38:28;4.15;;;1.00;;
52456;SDS011;38369;52.840;7.082;2022-09-21T15:40:55;3.17;;;0.80;;
52456;SDS011;38369;52.840;7.082;2022-09-21T15:43:21;8.48;;;1.40;;
52456;SDS011;38369;52.840;7.082;2022-09-21T15:45:52;5.57;;;1.33;;
52456;SDS011;38369;52.840;7.082;2022-09-21T15:48:29;1.98;;;0.75;;
52456;SDS011;38369;52.840;7.082;2022-09-21T15:53:33;5.65;;;1.02;;
52456;SDS011;38369;52.840;7.082;2022-09-21T15:56:00;2.40;;;0.75;;
52456;SDS011;38369;52.840;7.082;2022-09-21T16:00:59;5.88;;;1.05;;
52456;SDS011;38369;52.840;7.082;2022-09-21T16:03:26;4.25;;;1.02;;
52456;SDS011;38369;52.840;7.082;2022-09-21T16:05:53;4.85;;;0.90;;
52456;SDS011;38369;52.840;7.082;2022-09-21T16:08:30;5.78;;;1.08;;
52456;SDS011;38369;52.840;7.082;2022-09-21T16:13:39;4.72;;;1.00;;
52456;SDS011;38369;52.840;7.082;2022-09-21T16:16:24;8.20;;;1.40;;
52456;SDS011;38369;52.840;7.082;2022-09-21T16:18:51;4.57;;;0.80;;
52456;SDS011;38369;52.840;7.082;2022-09-21T16:23:46;3.10;;;0.77;;
52456;SDS011;38369;52.840;7.082;2022-09-21T16:26:31;5.97;;;1.00;;
52456;SDS011;38369;52.840;7.082;2022-09-21T16:31:43;3.38;;;0.90;;
52456;SDS011;38369;52.840;7.082;2022-09-21T16:34:21;2.72;;;0.80;;
52456;SDS011;38369;52.840;7.082;2022-09-21T16:36:48;2.90;;;0.73;;
52456;SDS011;38369;52.840;7.082;2022-09-21T16:39:15;3.22;;;0.57;;
52456;SDS011;38369;52.840;7.082;2022-09-21T16:41:43;4.57;;;1.30;;
52456;SDS011;38369;52.840;7.082;2022-09-21T16:44:11;2.70;;;0.70;;
52456;SDS011;38369;52.840;7.082;2022-09-21T16:46:44;4.25;;;0.77;;
52456;SDS011;38369;52.840;7.082;2022-09-21T16:49:11;2.75;;;0.75;;
52456;SDS011;38369;52.840;7.082;2022-09-21T16:51:44;5.55;;;1.02;;
52456;SDS011;38369;52.840;7.082;2022-09-21T16:54:11;7.03;;;2.03;;
52456;SDS011;38369;52.840;7.082;2022-09-21T16:56:38;4.45;;;1.00;;
52456;SDS011;38369;52.840;7.082;2022-09-21T16:59:15;3.63;;;0.90;;
52456;SDS011;38369;52.840;7.082;2022-09-21T17:01:43;2.00;;;0.60;;
52456;SDS011;38369;52.840;7.082;2022-09-21T17:04:12;6.43;;;1.17;;
52456;SDS011;38369;52.840;7.082;2022-09-21T17:06:38;5.93;;;0.90;;
52456;SDS011;38369;52.840;7.082;2022-09-21T17:09:47;4.25;;;0.80;;
52456;SDS011;38369;52.840;7.082;2022-09-21T17:11:55;5.05;;;1.20;;
52456;SDS011;38369;52.840;7.082;2022-09-21T17:14:24;6.82;;;1.02;;
52456;SDS011;38369;52.840;7.082;2022-09-21T17:16:50;2.72;;;0.90;;
52456;SDS011;38369;52.840;7.082;2022-09-21T17:19:17;8.80;;;1.27;;
52456;SDS011;38369;52.840;7.082;2022-09-21T17:21:44;3.17;;;1.00;;
52456;SDS011;38369;52.840;7.082;2022-09-21T17:24:11;2.30;;;1.00;;
52456;SDS011;38369;52.840;7.082;2022-09-21T17:26:37;1.92;;;0.90;;
52456;SDS011;38369;52.840;7.082;2022-09-21T17:29:05;2.65;;;0.95;;
52456;SDS011;38369;52.840;7.082;2022-09-21T17:31:38;3.17;;;1.35;;
52456;SDS011;38369;52.840;7.082;2022-09-21T17:34:08;5.30;;;1.00;;
52456;SDS011;38369;52.840;7.082;2022-09-21T17:36:36;4.30;;;0.88;;
52456;SDS011;38369;52.840;7.082;2022-09-21T17:39:02;3.53;;;0.95;;
52456;SDS011;38369;52.840;7.082;2022-09-21T17:41:39;7.07;;;1.02;;
52456;SDS011;38369;52.840;7.082;2022-09-21T17:46:39;7.07;;;1.70;;
52456;SDS011;38369;52.840;7.082;2022-09-21T17:49:08;4.95;;;2.40;;
52456;SDS011;38369;52.840;7.082;2022-09-21T17:51:35;10.98;;;4.03;;
52456;SDS011;38369;52.840;7.082;2022-09-21T17:54:39;3.90;;;1.73;;
52456;SDS011;38369;52.840;7.082;2022-09-21T17:57:10;5.63;;;2.42;;
52456;SDS011;38369;52.840;7.082;2022-09-21T17:59:38;9.40;;;2.38;;
52456;SDS011;38369;52.840;7.082;2022-09-21T18:02:22;6.80;;;2.47;;
52456;SDS011;38369;52.840;7.082;2022-09-21T18:04:49;4.90;;;2.00;;
52456;SDS011;38369;52.840;7.082;2022-09-21T18:07:17;9.55;;;2.72;;
52456;SDS011;38369;52.840;7.082;2022-09-21T18:09:44;10.43;;;2.08;;
52456;SDS011;38369;52.840;7.082;2022-09-21T18:17:51;8.35;;;2.45;;
52456;SDS011;38369;52.840;7.082;2022-09-21T18:20:36;4.65;;;2.05;;
52456;SDS011;38369;52.840;7.082;2022-09-21T18:25:41;7.32;;;2.70;;
52456;SDS011;38369;52.840;7.082;2022-09-21T18:28:14;3.53;;;2.40;;
52456;SDS011;38369;52.840;7.082;2022-09-21T18:30:43;7.10;;;2.40;;
52456;SDS011;38369;52.840;7.082;2022-09-21T18:33:25;10.68;;;2.85;;